Time;durP1;ratioP1;P1;durP2;ratioP2;P2;SDS_P1;SDS_P2;PMS_P1;PMS_P2;Temp;Humidity;BMP_temperature;BMP_pressure;BME280_temperature;BME280_humidity;BME280_pressure;Samples;Min_cycle;Max_cycle;Signal;HPM_P1;HPM_P2
2023/05/22 00:01:29;;;;;;;20.98;10.27;;;;;;;15.34;78.74;101098.84;4998183;28;20047;-63
2023/05/22 00:03:56;;;;;;;19.20;10.18;;;;;;;15.57;77.11;101097.38;5015905;28;20041;-64
2023/05/22 00:06:24;;;;;;;22.60;9.93;;;;;;;15.21;77.90;101100.69;5023660;28;20060;-64
2023/05/22 00:08:51;;;;;;;21.50;10.32;;;;;;;15.49;77.46;101090.75;5020529;28;20045;-61
2023/05/22 00:11:18;;;;;;;20.85;10.57;;;;;;;15.50;76.29;101086.00;5015135;28;20038;-63
2023/05/22 00:13:46;;;;;;;20.92;9.60;;;;;;;15.72;76.43;101100.41;5023414;28;20053;-64
2023/05/22 00:16:13;;;;;;;25.30;9.50;;;;;;;15.43;76.22;101102.41;5028215;28;20053;-61
2023/05/22 00:18:43;;;;;;;21.80;10.27;;;;;;;15.00;78.73;101097.06;5006656;28;20049;-60
2023/05/22 00:21:11;;;;;;;19.25;9.30;;;;;;;15.30;78.68;101087.59;5019690;28;20093;-60
2023/05/22 00:23:38;;;;;;;19.20;9.80;;;;;;;15.46;77.29;101091.41;5031822;28;20053;-61
2023/05/22 00:26:05;;;;;;;21.33;10.30;;;;;;;15.44;76.72;101093.75;5001361;28;20061;-60
2023/05/22 00:28:33;;;;;;;19.20;9.82;;;;;;;14.89;79.31;101095.00;5011554;28;20052;-60
2023/05/22 00:31:00;;;;;;;19.60;8.95;;;;;;;14.72;80.02;101092.25;5023568;28;20405;-59
2023/05/22 00:33:27;;;;;;;22.00;9.95;;;;;;;14.65;81.15;101096.38;5022699;28;20057;-63
2023/05/22 00:35:55;;;;;;;18.83;9.60;;;;;;;14.90;79.82;101096.59;5015058;28;20053;-63
2023/05/22 00:38:31;;;;;;;18.38;9.32;;;;;;;14.83;80.04;101099.91;4993728;28;20533;-63
2023/05/22 00:41:00;;;;;;;22.27;9.82;;;;;;;14.81;79.66;101096.66;5026719;28;20049;-59
2023/05/22 00:43:27;;;;;;;20.70;9.07;;;;;;;14.89;79.69;101095.00;5023005;28;20042;-64
2023/05/22 00:45:55;;;;;;;20.27;8.52;;;;;;;15.09;78.75;101086.72;5022086;28;20050;-63
2023/05/22 00:48:23;;;;;;;19.75;8.98;;;;;;;15.16;78.29;101098.13;5019888;28;20090;-61
2023/05/22 00:50:54;;;;;;;21.63;9.00;;;;;;;15.50;78.45;101092.38;5006121;28;20053;-61
2023/05/22 00:53:23;;;;;;;17.45;9.35;;;;;;;15.17;78.15;101088.63;5024654;28;20049;-61
2023/05/22 00:55:51;;;;;;;14.57;8.43;;;;;;;14.94;80.20;101090.06;5027762;28;20080;-60
2023/05/22 00:58:20;;;;;;;17.52;7.90;;;;;;;14.97;79.67;101081.09;5001953;28;20058;-61
2023/05/22 01:00:48;;;;;;;17.02;8.70;;;;;;;14.93;83.74;101084.84;5017347;28;20057;-61
2023/05/22 01:03:16;;;;;;;17.58;8.25;;;;;;;14.68;80.72;101081.84;4982021;28;20049;-60
2023/05/22 01:05:44;;;;;;;17.07;8.23;;;;;;;15.01;82.18;101078.47;5003811;28;20065;-60
2023/05/22 01:08:12;;;;;;;21.05;8.23;;;;;;;14.94;80.07;101076.19;5014078;28;20054;-60
2023/05/22 01:10:39;;;;;;;19.55;8.30;;;;;;;15.12;80.30;101072.19;5025112;28;20057;-60
2023/05/22 01:13:35;;;;;;;17.45;8.05;;;;;;;14.91;79.22;101068.53;4998128;28;20049;-62
2023/05/22 01:16:22;;;;;;;18.00;8.35;;;;;;;14.66;79.30;101072.25;5022960;28;20058;-61
2023/05/22 01:19:16;;;;;;;15.98;7.85;;;;;;;14.60;79.10;101076.34;5023224;28;20062;-61
2023/05/22 01:21:58;;;;;;;17.58;8.02;;;;;;;14.46;79.88;101082.09;5020911;28;20064;-60
2023/05/22 01:25:28;;;;;;;16.20;7.53;;;;;;;14.38;80.67;101084.88;5014801;28;20058;-61
2023/05/22 01:28:14;;;;;;;;;;;;;;;14.72;79.53;101084.78;4979444;28;20058;-61
2023/05/22 01:31:01;;;;;;;17.85;8.38;;;;;;;14.89;83.06;101081.91;4999945;28;19928;-61
2023/05/22 01:33:35;;;;;;;19.27;7.85;;;;;;;14.98;78.69;101079.09;5023335;28;21941;-61
2023/05/22 01:36:04;;;;;;;16.13;7.60;;;;;;;14.63;77.43;101070.94;5006219;28;20045;-62
2023/05/22 01:38:33;;;;;;;14.70;8.18;;;;;;;14.44;77.52;101078.84;5011705;28;20038;-59
2023/05/22 01:41:00;;;;;;;18.15;7.72;;;;;;;14.34;79.01;101079.19;5028787;28;20057;-62
2023/05/22 01:43:27;;;;;;;14.18;7.53;;;;;;;14.59;80.88;101080.25;5007658;28;20042;-61
2023/05/22 01:45:55;;;;;;;14.40;7.55;;;;;;;14.81;79.31;101074.47;5003814;28;20417;-60
2023/05/22 01:48:22;;;;;;;17.00;8.35;;;;;;;14.34;78.28;101079.19;5010296;28;20052;-61
2023/05/22 01:50:51;;;;;;;17.77;8.20;;;;;;;14.21;79.00;101069.06;5023929;28;20045;-61
2023/05/22 01:53:24;;;;;;;22.83;8.85;;;;;;;13.85;81.08;101084.44;5013014;28;20049;-61
2023/05/22 01:56:19;;;;;;;19.00;7.30;;;;;;;14.34;80.05;101076.41;5031467;28;20053;-61
2023/05/22 01:58:49;;;;;;;18.23;8.38;;;;;;;14.13;79.34;101081.00;5010337;28;20037;-62
2023/05/22 02:01:18;;;;;;;17.50;7.90;;;;;;;13.84;81.06;101080.03;5010406;28;20056;-63
2023/05/22 02:03:46;;;;;;;18.67;8.10;;;;;;;13.88;80.79;101087.34;5028381;28;20041;-62
2023/05/22 02:06:16;;;;;;;15.55;8.38;;;;;;;13.93;80.75;101080.84;5015906;28;20061;-61
2023/05/22 02:08:43;;;;;;;16.98;7.40;;;;;;;13.66;81.87;101081.16;5031025;28;20054;-61
2023/05/22 02:11:11;;;;;;;15.32;8.25;;;;;;;13.71;81.91;101084.59;4995284;28;20042;-59
2023/05/22 02:13:39;;;;;;;15.50;7.60;;;;;;;13.66;82.75;101084.75;5029821;28;20057;-62
2023/05/22 02:16:06;;;;;;;18.05;8.10;;;;;;;13.79;81.98;101085.75;5012876;28;20580;-61
2023/05/22 02:18:34;;;;;;;18.35;8.40;;;;;;;14.11;84.41;101076.91;5028749;28;20061;-61
2023/05/22 02:21:02;;;;;;;17.98;8.60;;;;;;;13.88;80.59;101079.03;5006499;28;20053;-60
2023/05/22 02:23:31;;;;;;;17.30;8.25;;;;;;;13.78;81.30;101086.88;5022089;28;20041;-61
2023/05/22 02:26:01;;;;;;;15.57;8.65;;;;;;;13.67;82.48;101075.31;5029737;28;20061;-61
2023/05/22 02:28:29;;;;;;;15.90;9.15;;;;;;;13.71;81.49;101084.59;5025395;28;20041;-60
2023/05/22 02:30:56;;;;;;;13.65;8.25;;;;;;;13.72;82.25;101086.22;5002334;28;20072;-61
2023/05/22 02:33:24;;;;;;;15.00;8.05;;;;;;;13.60;82.02;101076.94;5025479;28;20049;-61
2023/05/22 02:35:53;;;;;;;16.83;8.10;;;;;;;13.68;82.80;101074.19;5009490;28;20057;-61
2023/05/22 02:38:20;;;;;;;17.13;8.48;;;;;;;13.50;81.98;101076.13;5026005;28;20052;-61
2023/05/22 02:40:48;;;;;;;18.92;8.35;;;;;;;13.45;82.23;101067.97;5019780;28;20053;-62
2023/05/22 02:43:16;;;;;;;18.17;8.35;;;;;;;13.54;82.78;101067.97;4999471;28;20053;-62
2023/05/22 02:45:43;;;;;;;17.10;7.50;;;;;;;14.27;84.06;101081.66;5012934;28;20061;-60
2023/05/22 02:48:11;;;;;;;16.70;8.27;;;;;;;14.07;85.49;101076.75;5004088;28;20505;-61
2023/05/22 02:50:39;;;;;;;14.95;7.93;;;;;;;14.10;80.27;101073.34;5031892;28;20049;-61
2023/05/22 02:53:07;;;;;;;23.92;7.97;;;;;;;14.03;78.96;101069.44;5003376;28;20395;-61
2023/05/22 02:55:34;;;;;;;17.17;8.60;;;;;;;13.88;79.40;101075.50;5029172;28;20723;-61
2023/05/22 02:58:02;;;;;;;25.23;9.18;;;;;;;13.56;81.01;101072.03;5019330;28;20046;-61
2023/05/22 03:00:30;;;;;;;19.38;8.90;;;;;;;13.57;81.10;101079.22;5008367;28;20052;-60
2023/05/22 03:02:57;;;;;;;17.48;8.55;;;;;;;13.72;81.54;101077.13;5004788;28;20041;-60
2023/05/22 03:05:24;;;;;;;20.75;8.77;;;;;;;13.91;80.54;101086.72;5017574;28;20113;-61
2023/05/22 03:07:52;;;;;;;15.15;7.93;;;;;;;13.79;81.49;101074.66;5027395;28;20069;-61
2023/05/22 03:10:19;;;;;;;14.77;8.10;;;;;;;13.65;81.68;101068.47;5030570;28;20050;-61
2023/05/22 03:12:47;;;;;;;15.25;8.63;;;;;;;13.42;80.98;101081.66;5008009;28;20045;-61
2023/05/22 03:15:14;;;;;;;14.82;7.97;;;;;;;13.53;82.89;101077.41;5030253;28;20042;-61
2023/05/22 03:17:43;;;;;;;14.15;7.93;;;;;;;13.57;80.70;101078.41;5022635;28;20616;-61
2023/05/22 03:20:15;;;;;;;14.35;7.85;;;;;;;13.23;82.09;101084.69;4986557;28;20046;-60
2023/05/22 03:22:43;;;;;;;16.02;8.20;;;;;;;13.45;83.91;101087.34;5018948;28;20053;-61
2023/05/22 03:25:11;;;;;;;18.77;8.80;;;;;;;13.24;83.10;101085.50;5024119;28;20057;-62
2023/05/22 03:27:42;;;;;;;16.02;8.48;;;;;;;13.22;83.81;101088.59;5024984;28;20053;-61
2023/05/22 03:30:10;;;;;;;16.85;8.45;;;;;;;13.47;81.90;101082.31;5029938;28;20060;-61
2023/05/22 03:32:40;;;;;;;16.08;8.90;;;;;;;13.37;82.25;101082.59;5020870;28;20045;-62
2023/05/22 03:35:08;;;;;;;19.23;8.18;;;;;;;13.12;82.59;101080.59;5022313;28;20049;-63
2023/05/22 03:37:35;;;;;;;19.48;7.90;;;;;;;13.11;83.37;101084.50;5020445;28;20045;-60
2023/05/22 03:40:03;;;;;;;15.75;7.90;;;;;;;12.94;83.98;101084.41;5032879;28;20653;-61
2023/05/22 03:42:31;;;;;;;22.15;9.27;;;;;;;12.91;84.34;101076.78;5006402;28;20054;-61
2023/05/22 03:45:01;;;;;;;17.98;8.90;;;;;;;12.95;84.59;101074.19;5022961;28;20049;-60
2023/05/22 03:47:28;;;;;;;23.27;8.90;;;;;;;12.97;85.12;101077.44;5003877;28;20062;-60
2023/05/22 03:49:55;;;;;;;15.88;8.90;;;;;;;12.85;85.17;101074.47;5018510;28;20558;-61
2023/05/22 03:52:23;;;;;;;15.60;8.10;;;;;;;13.05;87.46;101063.66;5006695;28;20045;-61
2023/05/22 03:54:50;;;;;;;20.27;8.27;;;;;;;12.70;85.97;101074.88;5003194;28;20049;-61
2023/05/22 03:57:18;;;;;;;14.40;7.82;;;;;;;12.76;85.99;101077.19;5008106;28;20066;-61
2023/05/22 03:59:46;;;;;;;13.65;8.20;;;;;;;13.02;86.04;101083.66;5008025;28;20041;-61
2023/05/22 04:02:15;;;;;;;15.85;8.20;;;;;;;13.50;90.21;101086.38;5010583;28;20046;-61
2023/05/22 04:04:45;;;;;;;15.10;8.10;;;;;;;13.51;86.85;101088.00;5028153;28;20474;-60
2023/05/22 04:07:12;;;;;;;18.63;7.25;;;;;;;13.82;88.81;101093.38;5025507;28;20046;-61
2023/05/22 04:09:40;;;;;;;15.63;8.13;;;;;;;13.63;83.32;101109.50;5026997;28;20069;-61
2023/05/22 04:12:07;;;;;;;16.58;7.90;;;;;;;13.05;84.10;101104.31;5017662;28;20057;-61
2023/05/22 04:14:35;;;;;;;15.93;8.43;;;;;;;13.04;86.04;101105.47;5004213;28;20072;-61
2023/05/22 04:17:02;;;;;;;19.45;8.90;;;;;;;13.18;84.55;101106.97;5017508;28;20065;-60
2023/05/22 04:19:30;;;;;;;18.98;8.65;;;;;;;13.05;84.73;101090.50;4986093;28;20054;-63
2023/05/22 04:21:57;;;;;;;17.23;8.55;;;;;;;13.00;84.93;101096.97;5019048;28;20048;-60
2023/05/22 04:24:26;;;;;;;19.15;8.85;;;;;;;13.09;86.34;101097.81;5010827;28;20053;-60
2023/05/22 04:26:53;;;;;;;15.40;8.73;;;;;;;12.91;85.91;101098.06;5012353;28;20046;-60
2023/05/22 04:29:21;;;;;;;16.13;8.80;;;;;;;12.95;86.77;101096.31;5005497;28;20057;-60
2023/05/22 04:31:48;;;;;;;17.50;7.90;;;;;;;13.37;86.19;101090.91;5019304;28;20049;-60
2023/05/22 04:34:17;;;;;;;18.63;10.00;;;;;;;13.75;87.33;101085.59;5019689;28;20056;-60
2023/05/22 04:36:45;;;;;;;16.15;7.95;;;;;;;14.33;88.29;101091.41;5011420;28;20049;-64
2023/05/22 04:39:13;;;;;;;16.65;8.18;;;;;;;14.61;84.35;101098.19;5022437;28;20050;-62
2023/05/22 04:41:41;;;;;;;14.38;8.60;;;;;;;13.75;80.82;101102.19;5002449;28;20049;-61
2023/05/22 04:44:09;;;;;;;13.45;8.52;;;;;;;13.50;82.24;101114.88;5024565;28;20049;-61
2023/05/22 04:46:37;;;;;;;16.23;9.00;;;;;;;13.24;83.96;101110.41;5021362;28;20049;-59
2023/05/22 04:49:04;;;;;;;16.88;9.20;;;;;;;13.10;84.47;101116.06;5018273;28;20054;-61
2023/05/22 04:51:33;;;;;;;19.83;8.60;;;;;;;13.11;84.85;101120.44;5024880;28;20060;-61
2023/05/22 04:54:01;;;;;;;16.33;9.32;;;;;;;12.86;86.66;101126.69;5028310;28;20682;-65
2023/05/22 04:56:30;;;;;;;18.10;8.93;;;;;;;12.91;86.56;101126.53;5005444;28;20509;-65
2023/05/22 04:59:04;;;;;;;15.88;8.90;;;;;;;12.85;86.46;101124.25;5024848;28;20050;-65
2023/05/22 05:01:33;;;;;;;16.02;9.00;;;;;;;12.92;86.25;101133.69;5025601;28;20050;-65
2023/05/22 05:04:02;;;;;;;19.60;9.35;;;;;;;12.79;87.33;101123.56;5021867;28;20037;-64
2023/05/22 05:06:30;;;;;;;16.02;8.85;;;;;;;12.79;87.56;101123.56;5023183;28;20045;-65
2023/05/22 05:08:57;;;;;;;17.00;9.25;;;;;;;13.02;87.29;101122.38;5023187;28;20064;-64
2023/05/22 05:11:24;;;;;;;21.25;8.25;;;;;;;13.69;89.63;101131.16;5021415;28;20069;-65
2023/05/22 05:13:52;;;;;;;16.13;9.05;;;;;;;13.78;90.03;101132.00;5001269;28;20149;-64
2023/05/22 05:16:19;;;;;;;16.98;8.85;;;;;;;13.55;84.08;101127.72;5019013;28;20382;-64
2023/05/22 05:18:47;;;;;;;18.13;8.50;;;;;;;13.61;84.45;101125.63;5018091;28;20053;-65
2023/05/22 05:21:14;;;;;;;19.73;9.18;;;;;;;13.44;83.32;101120.88;5025273;28;20064;-64
2023/05/22 05:23:42;;;;;;;18.50;9.60;;;;;;;13.08;85.91;101125.81;5029345;28;20064;-64
2023/05/22 05:26:09;;;;;;;19.80;9.27;;;;;;;13.00;86.47;101119.09;5024134;28;20053;-64
2023/05/22 05:28:36;;;;;;;19.75;8.55;;;;;;;12.96;86.83;101115.34;5022832;28;20049;-64
2023/05/22 05:31:06;;;;;;;19.13;8.70;;;;;;;13.30;88.26;101109.13;5015753;28;20049;-64
2023/05/22 05:33:45;;;;;;;16.52;8.10;;;;;;;13.21;85.98;101109.13;5022818;28;20065;-64
2023/05/22 05:36:20;;;;;;;15.55;8.52;;;;;;;13.69;86.65;101113.72;5029531;28;20061;-65
2023/05/22 05:38:47;;;;;;;17.92;8.93;;;;;;;13.58;84.44;101124.34;5029112;28;20049;-65
2023/05/22 05:41:17;;;;;;;23.52;8.48;;;;;;;13.58;84.16;101121.56;5027093;28;20060;-64
2023/05/22 05:43:47;;;;;;;16.95;9.00;;;;;;;13.18;85.35;101120.00;5010456;28;20073;-63
2023/05/22 05:46:15;;;;;;;14.45;9.00;;;;;;;13.39;88.63;101118.25;5020010;28;20045;-64
2023/05/22 05:48:43;;;;;;;17.02;8.57;;;;;;;13.48;85.64;101119.06;4998653;28;20049;-64
2023/05/22 05:51:10;;;;;;;20.50;9.25;;;;;;;13.95;83.65;101106.25;5016666;28;20042;-64
2023/05/22 05:53:43;;;;;;;17.48;8.98;;;;;;;14.02;83.47;101117.66;4998450;28;20046;-65
2023/05/22 05:56:10;;;;;;;20.08;8.57;;;;;;;14.12;84.02;101107.03;5024562;28;20062;-64
2023/05/22 05:58:38;;;;;;;19.23;8.77;;;;;;;13.84;81.81;101104.97;5007623;28;20065;-65
2023/05/22 06:01:25;;;;;;;17.48;8.43;;;;;;;13.73;84.13;101106.41;5018634;28;20046;-65
2023/05/22 06:03:53;;;;;;;16.88;8.90;;;;;;;13.68;83.94;101117.66;5027404;28;20041;-65
2023/05/22 06:06:25;;;;;;;20.80;8.85;;;;;;;13.61;84.05;101112.59;5003198;28;20152;-66
2023/05/22 06:09:05;;;;;;;19.37;9.37;;;;;;;13.67;83.50;101113.25;5014560;28;20053;-64
2023/05/22 06:11:45;;;;;;;18.35;8.93;;;;;;;14.05;84.33;101103.97;5021298;28;20464;-64
2023/05/22 06:14:13;;;;;;;24.75;8.95;;;;;;;14.78;83.10;101102.03;5006989;28;20184;-64
2023/05/22 06:16:40;;;;;;;21.35;9.18;;;;;;;14.51;80.49;101097.72;5000672;28;20053;-64
2023/05/22 06:19:07;;;;;;;21.27;9.07;;;;;;;14.19;81.80;101101.81;4999116;28;20366;-65
2023/05/22 06:21:35;;;;;;;22.45;9.50;;;;;;;14.24;80.77;101115.50;4997063;28;20057;-65
2023/05/22 06:24:03;;;;;;;18.73;8.85;;;;;;;14.33;81.18;101112.78;5029191;28;20065;-64
2023/05/22 06:26:30;;;;;;;20.40;8.57;;;;;;;14.00;81.26;101119.94;5007282;28;20046;-66
2023/05/22 06:28:58;;;;;;;23.38;9.30;;;;;;;13.96;82.08;101118.97;5022479;28;20072;-65
2023/05/22 06:31:27;;;;;;;17.65;9.23;;;;;;;14.25;81.15;101117.16;5016675;28;20061;-63
2023/05/22 06:33:57;;;;;;;;;;;;;;;13.96;81.56;101111.47;5012672;28;20053;-64
2023/05/22 06:36:24;;;;;;;20.15;9.27;;;;;;;14.03;82.67;101119.28;5024833;28;19921;-64
2023/05/22 06:38:53;;;;;;;17.95;9.55;;;;;;;14.31;80.96;101120.59;4995578;28;20466;-63
2023/05/22 06:41:53;;;;;;;20.75;8.75;;;;;;;14.20;81.06;101125.63;4997404;28;20064;-64
2023/05/22 06:44:20;;;;;;;19.42;9.35;;;;;;;14.36;80.96;101126.78;5013646;28;20045;-64
2023/05/22 06:46:53;;;;;;;17.67;8.95;;;;;;;14.66;80.52;101128.50;4997484;28;20536;-63
2023/05/22 06:49:23;;;;;;;18.35;9.00;;;;;;;14.84;78.02;101129.25;5014720;28;20057;-63
2023/05/22 06:51:54;;;;;;;22.55;9.75;;;;;;;14.46;81.95;101129.22;5015916;28;20378;-64
2023/05/22 06:54:21;;;;;;;19.23;9.25;;;;;;;14.97;80.05;101127.41;5016157;28;20056;-64
2023/05/22 06:56:56;;;;;;;16.85;8.52;;;;;;;14.96;79.50;101132.16;5008862;28;22246;-63
2023/05/22 06:59:26;;;;;;;20.25;9.27;;;;;;;15.21;77.28;101125.69;5013580;28;20161;-58
2023/05/22 07:01:56;;;;;;;18.17;8.85;;;;;;;15.77;76.77;101135.47;5020676;28;20080;-59
2023/05/22 07:05:02;;;;;;;22.70;8.88;;;;;;;15.59;82.55;101137.56;5014350;28;20065;-62
2023/05/22 07:07:36;;;;;;;20.08;8.88;;;;;;;15.12;78.75;101137.94;5016657;28;20056;-64
2023/05/22 07:10:05;;;;;;;22.27;10.02;;;;;;;15.18;77.66;101144.97;4979891;28;20065;-63
2023/05/22 07:12:32;;;;;;;18.67;9.75;;;;;;;15.60;77.25;101143.94;5020257;28;20053;-62
2023/05/22 07:15:00;;;;;;;17.83;9.43;;;;;;;15.53;76.18;101141.66;5004700;28;20045;-63
2023/05/22 07:17:28;;;;;;;26.63;10.07;;;;;;;14.98;78.08;101145.69;5020767;28;20040;-63
2023/05/22 07:19:56;;;;;;;19.23;8.50;;;;;;;15.72;79.43;101138.47;4998127;28;20054;-63
2023/05/22 07:22:24;;;;;;;20.38;9.40;;;;;;;15.44;76.14;101140.94;5013447;28;20048;-63
2023/05/22 07:24:53;;;;;;;19.23;9.45;;;;;;;16.18;74.74;101140.22;5016729;28;20057;-63
2023/05/22 07:27:21;;;;;;;22.92;9.13;;;;;;;15.93;74.17;101144.03;4997239;28;20053;-62
2023/05/22 07:29:49;;;;;;;17.70;9.68;;;;;;;15.56;76.71;101142.97;4999550;28;20049;-64
2023/05/22 07:32:17;;;;;;;21.70;8.90;;;;;;;16.26;75.16;101148.50;5013409;28;20064;-64
2023/05/22 07:34:45;;;;;;;19.27;9.52;;;;;;;16.55;70.88;101162.28;5018835;28;20041;-63
2023/05/22 07:37:13;;;;;;;24.77;10.82;;;;;;;15.88;73.22;101158.13;4998780;28;20048;-63
2023/05/22 07:39:42;;;;;;;21.80;9.52;;;;;;;16.09;72.79;101150.59;5014034;28;20056;-63
2023/05/22 07:42:09;;;;;;;18.13;8.55;;;;;;;16.02;74.09;101158.66;4994232;28;20049;-64
2023/05/22 07:44:45;;;;;;;17.33;9.07;;;;;;;15.81;74.87;101161.44;5012528;28;20050;-64
2023/05/22 07:47:12;;;;;;;17.73;9.02;;;;;;;15.73;74.56;101157.56;5009115;28;20046;-64
2023/05/22 07:49:42;;;;;;;17.83;8.75;;;;;;;16.49;71.67;101151.72;5016069;28;20054;-64
2023/05/22 07:52:10;;;;;;;36.90;10.60;;;;;;;16.72;70.66;101161.28;5011533;28;20053;-65
2023/05/22 07:54:38;;;;;;;38.38;11.30;;;;;;;16.94;69.85;101163.66;4976262;28;20417;-64
2023/05/22 07:57:11;;;;;;;23.27;10.07;;;;;;;16.64;70.50;101164.97;5013206;28;20057;-64
2023/05/22 07:59:42;;;;;;;24.52;9.40;;;;;;;16.75;70.83;101152.28;4996233;28;20053;-63
2023/05/22 08:02:10;;;;;;;23.63;8.90;;;;;;;17.07;70.08;101159.72;5015075;28;20053;-63
2023/05/22 08:04:37;;;;;;;18.60;8.52;;;;;;;16.91;71.61;101152.41;5014638;28;20041;-64
2023/05/22 08:07:05;;;;;;;21.05;8.02;;;;;;;16.86;70.38;101157.03;5016890;28;20062;-63
2023/05/22 08:09:33;;;;;;;16.55;9.55;;;;;;;16.67;71.22;101161.50;5001976;28;20058;-64
2023/05/22 08:12:00;;;;;;;16.75;9.00;;;;;;;17.06;70.16;101160.09;5011809;28;20053;-63
2023/05/22 08:14:29;;;;;;;19.65;8.82;;;;;;;17.25;69.36;101158.38;5010319;28;20054;-63
2023/05/22 08:16:57;;;;;;;22.23;10.23;;;;;;;17.19;67.93;101170.09;4997025;28;20054;-61
2023/05/22 08:19:25;;;;;;;20.67;8.98;;;;;;;17.05;68.89;101164.84;4993491;28;20049;-62
2023/05/22 08:21:56;;;;;;;30.90;10.05;;;;;;;16.53;71.01;101170.16;4993258;28;20054;-63
2023/05/22 08:24:27;;;;;;;26.73;10.13;;;;;;;16.21;72.58;101173.72;5028097;28;20401;-64
2023/05/22 08:26:57;;;;;;;20.45;9.32;;;;;;;16.46;72.76;101169.03;5001718;28;20053;-65
2023/05/22 08:29:25;;;;;;;26.70;9.88;;;;;;;16.57;72.39;101164.72;5013393;28;20058;-64
2023/05/22 08:31:55;;;;;;;22.38;9.82;;;;;;;17.37;70.34;101160.34;5017160;28;20064;-64
2023/05/22 08:34:23;;;;;;;23.63;9.55;;;;;;;17.09;69.57;101165.78;5010939;28;20061;-63
2023/05/22 08:36:51;;;;;;;20.58;10.07;;;;;;;17.39;68.15;101177.50;5018057;28;20042;-64
2023/05/22 08:39:18;;;;;;;23.25;10.10;;;;;;;17.08;69.60;101169.72;5012912;28;20057;-68
2023/05/22 08:41:46;;;;;;;28.98;10.38;;;;;;;17.29;69.15;101172.41;5012630;28;20042;-63
2023/05/22 08:44:13;;;;;;;20.67;9.35;;;;;;;17.51;67.62;101178.38;5013495;28;20057;-63
2023/05/22 08:46:42;;;;;;;23.67;10.15;;;;;;;16.78;70.27;101171.06;4999653;28;20056;-61
2023/05/22 08:49:11;;;;;;;23.75;10.38;;;;;;;17.11;69.98;101173.78;5020320;28;20057;-61
2023/05/22 08:51:41;;;;;;;23.02;9.60;;;;;;;17.25;70.05;101168.69;5013329;28;20050;-62
2023/05/22 08:54:11;;;;;;;27.23;10.43;;;;;;;17.58;68.27;101174.97;5018392;28;20050;-63
2023/05/22 08:56:39;;;;;;;17.65;10.13;;;;;;;17.42;67.52;101177.63;5022260;28;20323;-60
2023/05/22 08:59:23;;;;;;;27.05;10.68;;;;;;;16.94;71.10;101174.81;5007782;28;20053;-59
2023/05/22 09:01:51;;;;;;;21.52;8.98;;;;;;;16.95;70.52;101175.59;5013792;28;20057;-58
2023/05/22 09:04:21;;;;;;;22.27;9.73;;;;;;;16.88;70.66;101178.94;5016057;28;20042;-57
2023/05/22 09:06:50;;;;;;;31.13;10.52;;;;;;;17.06;71.19;101185.97;5014250;28;20498;-60
2023/05/22 09:09:18;;;;;;;20.58;9.93;;;;;;;17.41;70.26;101175.19;5006905;28;20049;-60
2023/05/22 09:11:45;;;;;;;21.65;9.45;;;;;;;17.79;68.00;101190.41;5009090;28;20057;-58
2023/05/22 09:14:14;;;;;;;21.85;9.95;;;;;;;17.19;69.47;101187.59;5012443;28;20583;-59
2023/05/22 09:16:46;;;;;;;22.73;10.48;;;;;;;17.03;70.39;101185.84;4997648;28;20044;-59
2023/05/22 09:19:14;;;;;;;18.40;10.50;;;;;;;17.16;70.71;101181.91;5016157;28;20045;-60
2023/05/22 09:21:43;;;;;;;21.60;10.57;;;;;;;17.48;69.19;101179.06;5019623;28;20401;-61
2023/05/22 09:24:10;;;;;;;22.52;10.98;;;;;;;17.67;68.90;101196.00;5014564;28;20045;-58
2023/05/22 09:26:41;;;;;;;29.92;10.27;;;;;;;17.84;67.77;101186.56;5012282;28;20045;-60
2023/05/22 09:29:08;;;;;;;20.38;11.05;;;;;;;17.46;70.05;101197.25;5018541;28;20060;-59
2023/05/22 09:31:42;;;;;;;21.58;9.98;;;;;;;17.88;69.19;101191.09;5018492;28;20068;-58
2023/05/22 09:34:16;;;;;;;21.85;10.25;;;;;;;18.22;67.86;101183.38;5023662;28;20045;-60
2023/05/22 09:36:44;;;;;;;21.05;10.27;;;;;;;18.56;66.18;101196.72;5017258;28;20049;-61
2023/05/22 09:39:11;;;;;;;18.58;10.05;;;;;;;19.03;65.55;101180.91;5004286;28;20053;-62
2023/05/22 09:41:39;;;;;;;22.85;10.50;;;;;;;19.02;64.19;101182.88;4993601;28;20386;-60
2023/05/22 09:44:13;;;;;;;20.23;9.82;;;;;;;18.82;64.88;101181.16;5026298;28;20050;-59
2023/05/22 09:46:44;;;;;;;20.70;11.50;;;;;;;18.56;65.78;101178.03;5012023;28;20052;-60
2023/05/22 09:49:13;;;;;;;24.05;11.48;;;;;;;18.63;65.26;101171.81;5012153;28;20053;-61
2023/05/22 09:51:46;;;;;;;26.13;11.75;;;;;;;18.84;65.56;101184.41;5013969;28;20065;-60
2023/05/22 09:54:15;;;;;;;25.08;10.65;;;;;;;18.89;65.48;101172.97;4996801;28;20046;-61
2023/05/22 09:56:43;;;;;;;23.25;10.80;;;;;;;18.84;65.21;101172.41;5014306;28;20033;-61
2023/05/22 09:59:11;;;;;;;22.25;12.35;;;;;;;18.70;66.53;101174.81;4996082;28;20053;-60
2023/05/22 10:01:39;;;;;;;21.40;11.38;;;;;;;18.99;65.65;101177.19;5000535;28;20065;-62
2023/05/22 10:04:10;;;;;;;23.25;11.35;;;;;;;18.77;65.26;101175.00;5018523;28;20056;-61
2023/05/22 10:06:39;;;;;;;24.58;11.05;;;;;;;18.81;67.29;101181.50;5016703;28;20049;-61
2023/05/22 10:09:08;;;;;;;25.75;11.43;;;;;;;18.22;67.94;101186.16;5018513;28;20061;-59
2023/05/22 10:11:36;;;;;;;28.10;11.33;;;;;;;18.16;68.48;101188.38;5019790;28;20057;-61
2023/05/22 10:14:04;;;;;;;28.23;12.10;;;;;;;18.26;68.38;101176.72;5021895;28;20791;-60
2023/05/22 10:16:32;;;;;;;23.98;11.93;;;;;;;18.18;68.80;101172.09;5022040;28;20042;-61
2023/05/22 10:19:00;;;;;;;22.50;11.93;;;;;;;18.38;68.51;101173.06;4995578;28;20509;-63
2023/05/22 10:21:30;;;;;;;27.13;12.35;;;;;;;18.57;67.44;101164.88;5016938;28;20053;-62
2023/05/22 10:23:59;;;;;;;26.52;12.25;;;;;;;18.64;67.43;101165.88;4999662;28;20061;-61
2023/05/22 10:26:28;;;;;;;25.55;13.23;;;;;;;18.54;67.50;101171.16;4995983;28;20405;-62
2023/05/22 10:29:03;;;;;;;25.55;12.13;;;;;;;19.11;67.00;101168.72;5015822;28;20457;-62
2023/05/22 10:32:15;;;;;;;21.65;11.32;;;;;;;19.09;65.59;101173.84;5019401;28;20064;-61
2023/05/22 10:35:01;;;;;;;21.17;11.65;;;;;;;19.18;66.10;101174.50;4920914;29;20059;-61
2023/05/22 10:37:54;;;;;;;25.83;13.23;;;;;;;18.65;67.95;101159.16;5001046;28;20050;-61
2023/05/22 10:40:27;;;;;;;21.60;12.15;;;;;;;19.01;67.08;101161.72;5026290;28;20045;-62
2023/05/22 10:42:57;;;;;;;21.15;11.75;;;;;;;18.99;66.36;101168.81;4998067;28;20054;-63
2023/05/22 10:45:26;;;;;;;23.30;13.40;;;;;;;18.70;67.58;101166.44;5018803;28;20041;-61
2023/05/22 10:48:03;;;;;;;26.23;14.23;;;;;;;18.76;67.87;101159.41;5024900;28;20420;-61
2023/05/22 10:50:31;;;;;;;24.08;14.00;;;;;;;19.08;66.95;101142.34;5021640;28;20050;-63
2023/05/22 10:53:22;;;;;;;28.33;13.65;;;;;;;19.23;66.19;101142.72;5009409;28;20053;-61
2023/05/22 10:55:54;;;;;;;25.70;13.15;;;;;;;19.30;66.42;101138.13;5011235;28;20507;-62
2023/05/22 10:58:29;;;;;;;29.02;17.63;;;;;;;19.33;66.11;101136.59;5010441;28;20041;-63
2023/05/22 11:01:16;;;;;;;35.33;22.13;;;;;;;19.13;67.16;101135.69;5021824;28;20061;-62
2023/05/22 11:04:05;;;;;;;28.27;17.90;;;;;;;19.16;66.91;101123.00;5008210;28;20401;-62
2023/05/22 11:06:34;;;;;;;28.42;15.30;;;;;;;19.36;66.72;101138.66;5013772;28;20045;-61
2023/05/22 11:09:27;;;;;;;27.00;16.05;;;;;;;19.44;65.83;101127.28;5018994;28;20460;-60
2023/05/22 11:12:15;;;;;;;23.70;12.57;;;;;;;19.46;65.99;101129.72;5012242;28;20435;-61
2023/05/22 11:15:07;;;;;;;24.60;14.20;;;;;;;19.75;65.55;101130.00;5014964;28;20549;-61
2023/05/22 11:17:43;;;;;;;26.88;13.82;;;;;;;19.49;65.57;101127.00;5012258;28;20049;-60
2023/05/22 11:20:19;;;;;;;24.63;13.82;;;;;;;19.46;66.11;101121.34;5017685;28;20045;-60
2023/05/22 11:23:00;;;;;;;20.48;12.50;;;;;;;19.88;65.68;101125.94;4996223;28;20061;-61
2023/05/22 11:25:28;;;;;;;19.67;13.98;;;;;;;20.12;63.86;101128.44;5014709;28;20129;-62
2023/05/22 11:27:56;;;;;;;20.15;13.00;;;;;;;20.02;63.74;101120.66;4990559;28;20478;-60
2023/05/22 11:30:25;;;;;;;19.83;12.95;;;;;;;19.89;64.30;101129.53;5018586;28;20053;-61